createdAt,value
2018-02-01T00:00:37.580Z,9.88
2018-02-01T00:03:04.505Z,8.07
2018-02-01T00:05:31.849Z,8.77
2018-02-01T00:07:58.085Z,7.22
2018-02-01T00:10:24.138Z,7.20
2018-02-01T00:12:50.216Z,8.18
2018-02-01T00:15:17.187Z,7.32
2018-02-01T00:17:43.389Z,6.35
2018-02-01T00:20:09.595Z,7.57
2018-02-01T00:22:35.753Z,6.72
2018-02-01T00:25:01.935Z,6.95
2018-02-01T00:27:28.112Z,6.50
2018-02-01T00:29:54.287Z,6.28
2018-02-01T00:32:21.089Z,6.70
2018-02-01T00:34:47.269Z,7.22
2018-02-01T00:37:13.466Z,7.72
2018-02-01T00:39:39.701Z,7.55
2018-02-01T00:42:05.896Z,6.75
2018-02-01T00:44:32.843Z,7.40
2018-02-01T00:47:00.242Z,6.65
2018-02-01T00:49:26.424Z,6.53
2018-02-01T00:51:52.661Z,7.07
2018-02-01T00:54:18.889Z,7.28
2018-02-01T00:56:45.103Z,7.18
2018-02-01T00:59:11.167Z,7.70
2018-02-01T01:01:37.404Z,7.47
2018-02-01T01:04:03.421Z,6.65
2018-02-01T01:06:30.360Z,7.43
2018-02-01T01:08:57.388Z,7.03
2018-02-01T01:11:23.573Z,7.15
2018-02-01T01:13:49.890Z,7.22
2018-02-01T01:16:16.902Z,7.60
2018-02-01T01:18:43.915Z,9.23
2018-02-01T01:21:10.096Z,8.43
2018-02-01T01:23:36.374Z,8.35
2018-02-01T01:26:02.577Z,7.55
2018-02-01T01:28:29.340Z,8.15
2018-02-01T01:30:56.268Z,9.20
2018-02-01T01:33:23.265Z,8.52
2018-02-01T01:35:49.503Z,8.35
2018-02-01T01:38:15.849Z,8.93
2018-02-01T01:40:42.076Z,8.18
2018-02-01T01:43:08.280Z,8.55
2018-02-01T01:45:34.484Z,8.88
2018-02-01T01:48:00.684Z,9.25
2018-02-01T01:50:26.903Z,8.75
2018-02-01T01:52:53.173Z,8.75
2018-02-01T01:55:20.269Z,9.10
2018-02-01T01:57:46.485Z,8.18
2018-02-01T02:00:12.715Z,9.00
2018-02-01T02:02:38.935Z,8.30
2018-02-01T02:05:04.980Z,8.45
2018-02-01T02:07:31.060Z,9.38
2018-02-01T02:09:57.090Z,7.82
2018-02-01T02:12:25.213Z,8.10
2018-02-01T02:14:51.980Z,7.00
2018-02-01T02:17:18.012Z,6.90
2018-02-01T02:19:44.780Z,6.87
2018-02-01T02:22:11.071Z,7.25
2018-02-01T02:24:37.112Z,6.68
2018-02-01T02:27:03.152Z,7.72
2018-02-01T02:29:29.185Z,6.97
2018-02-01T02:31:55.214Z,7.55
2018-02-01T02:34:21.253Z,6.28
2018-02-01T02:36:47.285Z,6.85
2018-02-01T02:39:13.311Z,6.80
2018-02-01T02:41:39.392Z,6.25
2018-02-01T02:44:06.447Z,7.10
2018-02-01T02:46:33.219Z,7.78
2018-02-01T02:48:59.241Z,5.70
2018-02-01T02:51:25.999Z,6.20
2018-02-01T02:53:52.831Z,6.82
2018-02-01T02:56:18.904Z,5.82
2018-02-01T02:58:45.605Z,7.05
2018-02-01T03:01:11.853Z,5.90
2018-02-01T03:03:38.045Z,6.50
2018-02-01T03:06:04.989Z,7.32
2018-02-01T03:08:31.308Z,5.20
2018-02-01T03:10:59.382Z,6.28
2018-02-01T03:13:25.607Z,6.57
2018-02-01T03:15:51.989Z,7.30
2018-02-01T03:18:18.208Z,5.70
2018-02-01T03:20:44.517Z,5.87
2018-02-01T03:23:10.720Z,5.32
2018-02-01T03:25:36.981Z,5.37
2018-02-01T03:28:04.313Z,6.28
2018-02-01T03:30:30.526Z,4.68
2018-02-01T03:32:56.729Z,4.65
2018-02-01T03:35:22.915Z,4.62
2018-02-01T03:37:49.434Z,5.28
2018-02-01T03:40:15.966Z,5.00
2018-02-01T03:42:42.152Z,4.05
2018-02-01T03:45:08.233Z,4.97
2018-02-01T03:47:34.258Z,4.10
2018-02-01T03:50:00.297Z,3.22
2018-02-01T03:52:27.046Z,4.18
2018-02-01T03:54:53.800Z,3.40
2018-02-01T03:57:19.847Z,3.12
2018-02-01T03:59:45.852Z,3.60
2018-02-01T04:02:11.864Z,4.75
2018-02-01T04:04:37.883Z,4.57
2018-02-01T04:07:03.912Z,3.85
2018-02-01T04:09:29.936Z,3.47
2018-02-01T04:11:55.968Z,3.08
2018-02-01T04:14:21.992Z,3.30
2018-02-01T04:16:48.064Z,3.47
2018-02-01T04:19:14.400Z,3.60
2018-02-01T04:21:40.621Z,2.58
2018-02-01T04:24:07.576Z,3.65
2018-02-01T04:26:34.532Z,3.40
2018-02-01T04:29:01.121Z,3.50
2018-02-01T04:31:27.330Z,3.95
2018-02-01T04:33:54.318Z,3.45
2018-02-01T04:36:20.523Z,3.92
2018-02-01T04:38:46.777Z,3.20
2018-02-01T04:41:13.001Z,3.58
2018-02-01T04:43:39.964Z,4.15
2018-02-01T04:46:06.176Z,4.25
2018-02-01T04:48:32.432Z,3.65
2018-02-01T04:50:58.644Z,3.85
2018-02-01T04:53:24.879Z,4.05
2018-02-01T04:55:51.113Z,3.90
2018-02-01T04:58:17.335Z,4.70
2018-02-01T05:00:44.441Z,3.50
2018-02-01T05:03:10.677Z,3.95
2018-02-01T05:05:36.888Z,4.53
2018-02-01T05:08:03.149Z,4.62
2018-02-01T05:10:29.356Z,4.12
2018-02-01T05:12:56.304Z,4.47
2018-02-01T05:15:23.284Z,4.00
2018-02-01T05:17:49.503Z,3.95
2018-02-01T05:20:16.459Z,5.20
2018-02-01T05:22:42.709Z,4.68
2018-02-01T05:25:08.732Z,4.45
2018-02-01T05:27:35.483Z,4.70
2018-02-01T05:30:02.297Z,5.05
2018-02-01T05:32:28.312Z,5.25
2018-02-01T05:34:54.324Z,4.10
2018-02-01T05:37:20.608Z,4.12
2018-02-01T05:39:47.764Z,4.80
2018-02-01T05:42:13.801Z,4.45
2018-02-01T05:44:39.840Z,4.50
2018-02-01T05:47:05.892Z,5.12
2018-02-01T05:49:32.665Z,4.60
2018-02-01T05:51:58.680Z,4.00
2018-02-01T05:54:24.729Z,5.35
2018-02-01T05:56:50.760Z,4.20
2018-02-01T05:59:16.785Z,3.78
2018-02-01T06:01:42.957Z,5.03
2018-02-01T06:04:09.173Z,6.35
2018-02-01T06:06:35.375Z,5.68
2018-02-01T06:09:01.611Z,4.50
2018-02-01T06:11:28.545Z,4.97
2018-02-01T06:13:54.897Z,4.87
2018-02-01T06:16:21.882Z,4.60
2018-02-01T06:18:48.827Z,4.00
2018-02-01T06:21:15.096Z,4.15
2018-02-01T06:23:41.329Z,5.10
2018-02-01T06:26:07.564Z,4.37
2018-02-01T06:28:34.554Z,4.93
2018-02-01T06:31:00.782Z,4.10
2018-02-01T06:33:26.994Z,5.53
2018-02-01T06:35:53.356Z,4.57
2018-02-01T06:38:20.808Z,4.72
2018-02-01T06:40:47.845Z,5.00
2018-02-01T06:43:14.043Z,4.15
2018-02-01T06:45:40.260Z,4.60
2018-02-01T06:48:06.470Z,3.72
2018-02-01T06:50:33.424Z,4.07
2018-02-01T06:53:00.372Z,3.65
2018-02-01T06:55:27.427Z,3.78
2018-02-01T06:57:54.602Z,4.32
2018-02-01T07:00:21.128Z,6.28
2018-02-01T07:02:47.847Z,5.30
2018-02-01T07:05:14.082Z,5.75
2018-02-01T07:07:40.111Z,4.30
2018-02-01T07:10:06.117Z,4.40
2018-02-01T07:12:32.864Z,5.28
2018-02-01T07:14:58.886Z,4.60
2018-02-01T07:17:25.020Z,4.10
2018-02-01T07:19:51.805Z,4.47
2018-02-01T07:22:17.861Z,3.92
2018-02-01T07:24:43.897Z,4.00
2018-02-01T07:27:09.974Z,4.07
2018-02-01T07:29:35.980Z,4.80
2018-02-01T07:32:02.009Z,5.45
2018-02-01T07:34:28.048Z,4.78
2018-02-01T07:36:54.086Z,5.15
2018-02-01T07:39:20.496Z,4.65
2018-02-01T07:41:46.530Z,4.70
2018-02-01T07:44:12.597Z,4.95
2018-02-01T07:46:41.710Z,4.50
2018-02-01T07:49:07.730Z,5.60
2018-02-01T07:51:33.793Z,4.60
2018-02-01T07:53:59.832Z,4.82
2018-02-01T07:56:25.865Z,4.32
2018-02-01T07:58:51.946Z,4.07
2018-02-01T08:01:18.056Z,3.10
2018-02-01T08:03:44.099Z,3.65
2018-02-01T08:06:11.053Z,3.35
2018-02-01T08:08:38.031Z,3.20
2018-02-01T08:11:04.215Z,3.50
2018-02-01T08:13:30.399Z,4.00
2018-02-01T08:16:00.848Z,3.85
2018-02-01T08:18:30.499Z,3.25
2018-02-01T08:20:58.196Z,3.10
2018-02-01T08:23:25.171Z,4.00
2018-02-01T08:25:52.156Z,2.35
2018-02-01T08:28:18.232Z,2.55
2018-02-01T08:30:44.373Z,2.55
2018-02-01T08:33:13.492Z,3.05
2018-02-01T08:35:43.933Z,2.20
2018-02-01T08:38:10.142Z,2.45
2018-02-01T08:40:36.335Z,2.25
2018-02-01T08:43:03.266Z,3.30
2018-02-01T08:45:30.514Z,2.53
2018-02-01T08:47:57.457Z,2.80
2018-02-01T08:50:23.712Z,2.12
2018-02-01T08:52:50.041Z,3.22
2018-02-01T08:55:16.271Z,2.55
2018-02-01T08:57:42.457Z,2.37
2018-02-01T09:00:09.436Z,2.80
2018-02-01T09:02:36.368Z,2.72
2018-02-01T09:05:02.676Z,1.98
2018-02-01T09:07:28.966Z,2.90
2018-02-01T09:09:55.166Z,2.40
2018-02-01T09:12:21.438Z,2.62
2018-02-01T09:14:48.520Z,3.15
2018-02-01T09:17:14.754Z,2.70
2018-02-01T09:19:41.022Z,2.90
2018-02-01T09:22:07.229Z,2.75
2018-02-01T09:24:33.429Z,2.25
2018-02-01T09:27:00.366Z,3.22
2018-02-01T09:29:26.560Z,2.12
2018-02-01T09:31:54.911Z,3.00
2018-02-01T09:34:21.868Z,1.90
2018-02-01T09:36:48.823Z,2.20
2018-02-01T09:39:15.035Z,1.98
2018-02-01T09:41:42.004Z,2.33
2018-02-01T09:44:08.245Z,2.97
2018-02-01T09:46:38.582Z,1.98
2018-02-01T09:49:04.888Z,2.45
2018-02-01T09:51:31.084Z,2.30
2018-02-01T09:53:57.284Z,2.53
2018-02-01T09:56:23.490Z,3.40
2018-02-01T09:58:49.752Z,1.98
2018-02-01T10:01:16.017Z,3.40
2018-02-01T10:03:45.350Z,3.12
2018-02-01T10:06:12.336Z,3.42
2018-02-01T10:08:38.564Z,2.90
2018-02-01T10:11:05.520Z,2.75
2018-02-01T10:13:32.597Z,2.20
2018-02-01T10:15:58.825Z,2.60
2018-02-01T10:18:25.027Z,3.10
2018-02-01T10:20:51.249Z,2.53
2018-02-01T10:23:20.899Z,2.67
2018-02-01T10:25:47.132Z,2.60
2018-02-01T10:28:13.144Z,2.75
2018-02-01T10:30:40.101Z,3.55
2018-02-01T10:33:06.426Z,3.42
2018-02-01T10:35:32.720Z,3.40
2018-02-01T10:37:58.895Z,3.22
2018-02-01T10:40:25.116Z,3.78
2018-02-01T10:42:53.076Z,3.10
2018-02-01T10:45:19.121Z,3.33
2018-02-01T10:47:45.164Z,3.10
2018-02-01T10:50:11.188Z,2.85
2018-02-01T10:52:38.162Z,3.45
2018-02-01T10:55:05.104Z,3.65
2018-02-01T10:57:31.305Z,3.53
2018-02-01T11:00:02.242Z,2.55
2018-02-01T11:02:28.437Z,3.15
2018-02-01T11:04:54.660Z,3.22
2018-02-01T11:07:21.806Z,2.92
2018-02-01T11:09:48.149Z,3.30
2018-02-01T11:12:14.388Z,3.60
2018-02-01T11:14:40.665Z,3.37
2018-02-01T11:17:06.690Z,3.37
2018-02-01T11:19:37.464Z,3.05
2018-02-01T11:22:04.232Z,2.85
2018-02-01T11:24:30.996Z,3.10
2018-02-01T11:26:57.775Z,2.60
2018-02-01T11:29:23.813Z,4.40
2018-02-01T11:31:50.029Z,2.95
2018-02-01T11:34:18.800Z,3.50
2018-02-01T11:36:48.604Z,2.50
2018-02-01T11:39:14.832Z,2.25
2018-02-01T11:41:41.173Z,2.40
2018-02-01T11:44:07.384Z,2.58
2018-02-01T11:46:33.602Z,3.28
2018-02-01T11:48:59.842Z,4.00
2018-02-01T11:51:26.109Z,2.95
2018-02-01T11:53:57.176Z,2.62
2018-02-01T11:56:23.395Z,2.42
2018-02-01T11:58:49.604Z,2.53
2018-02-01T12:01:15.841Z,2.20
2018-02-01T12:03:42.112Z,3.40
2018-02-01T12:06:08.342Z,2.40
2018-02-01T12:08:35.300Z,2.45
2018-02-01T12:11:07.196Z,1.85
2018-02-01T12:13:34.138Z,2.62
2018-02-01T12:16:00.385Z,1.45
2018-02-01T12:18:27.333Z,1.98
2018-02-01T12:20:53.564Z,1.48
2018-02-01T12:23:19.796Z,2.55
2018-02-01T12:25:46.026Z,3.87
2018-02-01T12:28:17.801Z,2.83
2018-02-01T12:30:44.045Z,1.80
2018-02-01T12:33:10.272Z,2.00
2018-02-01T12:35:36.520Z,1.90
2018-02-01T12:38:02.743Z,2.95
2018-02-01T12:40:29.704Z,1.90
2018-02-01T12:42:56.662Z,1.48
2018-02-01T12:45:23.740Z,1.87
2018-02-01T12:47:49.968Z,2.70
2018-02-01T12:50:16.925Z,2.30
2018-02-01T12:52:43.120Z,1.90
2018-02-01T12:55:09.150Z,1.42
2018-02-01T12:57:35.164Z,2.83
2018-02-01T13:00:01.413Z,1.95
2018-02-01T13:02:27.428Z,1.98
2018-02-01T13:04:56.981Z,1.75
2018-02-01T13:07:22.991Z,2.17
2018-02-01T13:09:49.001Z,1.70
2018-02-01T13:12:15.768Z,1.90
2018-02-01T13:14:42.002Z,1.85
2018-02-01T13:17:08.209Z,2.15
2018-02-01T13:19:34.443Z,2.35
2018-02-01T13:22:00.640Z,1.90
2018-02-01T13:24:33.465Z,1.90
2018-02-01T13:26:59.680Z,2.62
2018-02-01T13:29:26.617Z,2.10
2018-02-01T13:31:52.828Z,3.20
2018-02-01T13:34:19.037Z,1.98
2018-02-01T13:36:45.133Z,2.90
2018-02-01T13:39:11.140Z,3.85
2018-02-01T13:41:37.183Z,2.20
2018-02-01T13:44:06.051Z,2.55
2018-02-01T13:46:32.897Z,2.65
2018-02-01T13:48:58.898Z,3.20
2018-02-01T13:51:24.917Z,2.40
2018-02-01T13:53:50.937Z,2.20
2018-02-01T13:56:16.968Z,1.90
2018-02-01T13:58:43.855Z,2.20
2018-02-01T14:01:14.936Z,1.92
2018-02-01T14:03:41.169Z,2.33
2018-02-01T14:06:07.401Z,2.50
2018-02-01T14:08:33.608Z,3.35
2018-02-01T14:11:00.585Z,2.25
2018-02-01T14:13:26.938Z,2.97
2018-02-01T14:15:53.153Z,2.00
2018-02-01T14:18:22.398Z,2.60
2018-02-01T14:20:48.742Z,2.62
2018-02-01T14:23:15.690Z,2.22
2018-02-01T14:25:41.910Z,2.75
2018-02-01T14:28:08.155Z,2.28
2018-02-01T14:30:35.193Z,3.35
2018-02-01T14:33:01.506Z,1.55
2018-02-01T14:35:29.629Z,2.20
2018-02-01T14:37:56.641Z,2.20
2018-02-01T14:40:22.829Z,2.40
2018-02-01T14:42:49.323Z,2.40
2018-02-01T14:45:16.336Z,1.95
2018-02-01T14:47:42.391Z,1.85
2018-02-01T14:50:08.438Z,2.80
2018-02-01T14:52:34.500Z,2.40
2018-02-01T14:55:04.700Z,2.30
2018-02-01T14:57:31.466Z,2.30
2018-02-01T14:59:57.519Z,2.80
2018-02-01T15:02:23.576Z,3.42
2018-02-01T15:04:49.772Z,2.55
2018-02-01T15:07:16.074Z,2.78
2018-02-01T15:09:42.257Z,3.10
2018-02-01T15:12:09.236Z,2.90
2018-02-01T15:14:38.068Z,3.90
2018-02-01T15:17:04.289Z,4.00
2018-02-01T15:19:31.231Z,4.90
2018-02-01T15:21:58.201Z,4.10
2018-02-01T15:24:25.181Z,5.10
2018-02-01T15:26:51.421Z,4.93
2018-02-01T15:29:17.631Z,4.40
2018-02-01T15:31:43.921Z,5.18
2018-02-01T15:34:10.115Z,5.78
2018-02-01T15:36:36.187Z,5.87
2018-02-01T15:39:03.095Z,6.18
2018-02-01T15:41:29.324Z,6.80
2018-02-01T15:43:57.123Z,7.43
2018-02-01T15:46:23.391Z,8.13
2018-02-01T15:48:50.309Z,8.15
2018-02-01T15:51:16.499Z,9.48
2018-02-01T15:53:42.538Z,8.90
2018-02-01T15:56:09.311Z,8.43
2018-02-01T15:58:35.324Z,9.73
2018-02-01T16:01:03.058Z,9.05
2018-02-01T16:03:29.394Z,10.35
2018-02-01T16:05:55.686Z,9.52
2018-02-01T16:08:21.938Z,10.38
2018-02-01T16:10:48.144Z,10.85
2018-02-01T16:13:14.373Z,11.98
2018-02-01T16:15:40.584Z,12.23
2018-02-01T16:18:06.848Z,11.50
2018-02-01T16:20:33.282Z,13.62
2018-02-01T16:22:59.485Z,13.62
2018-02-01T16:25:25.501Z,15.52
2018-02-01T16:27:51.523Z,15.55
2018-02-01T16:30:17.540Z,14.95
2018-02-01T16:32:43.689Z,13.52
2018-02-01T16:35:09.716Z,15.65
2018-02-01T16:37:35.769Z,14.25
2018-02-01T16:40:01.803Z,14.68
2018-02-01T16:42:27.888Z,14.32
2018-02-01T16:44:55.619Z,14.80
2018-02-01T16:47:21.868Z,14.75
2018-02-01T16:49:48.080Z,15.88
2018-02-01T16:52:15.218Z,17.58
2018-02-01T16:54:42.976Z,14.18
2018-02-01T16:57:09.431Z,15.35
2018-02-01T16:59:35.660Z,16.55
2018-02-01T17:02:01.864Z,17.27
2018-02-01T17:04:28.196Z,16.98
2018-02-01T17:06:54.461Z,16.85
2018-02-01T17:09:24.180Z,16.40
2018-02-01T17:11:50.412Z,16.27
2018-02-01T17:14:17.441Z,16.52
2018-02-01T17:16:43.689Z,19.87
2018-02-01T17:19:09.849Z,18.40
2018-02-01T17:21:36.808Z,18.75
2018-02-01T17:24:03.622Z,19.40
2018-02-01T17:26:29.860Z,17.70
2018-02-01T17:28:56.072Z,18.62
2018-02-01T17:31:22.157Z,17.73
2018-02-01T17:33:48.174Z,16.62
2018-02-01T17:36:14.852Z,15.15
2018-02-01T17:38:41.803Z,15.93
2018-02-01T17:41:08.200Z,15.45
2018-02-01T17:43:34.405Z,15.50
2018-02-01T17:46:00.689Z,15.48
2018-02-01T17:48:27.609Z,16.67
2018-02-01T17:50:53.845Z,16.98
2018-02-01T17:53:20.849Z,15.25
2018-02-01T17:55:47.062Z,14.20
2018-02-01T17:58:14.001Z,15.48
2018-02-01T18:00:40.376Z,14.32
2018-02-01T18:03:07.304Z,15.30
2018-02-01T18:05:33.619Z,15.60
2018-02-01T18:08:00.409Z,14.85
2018-02-01T18:10:26.667Z,14.15
2018-02-01T18:12:52.881Z,13.45
2018-02-01T18:15:20.734Z,13.18
2018-02-01T18:17:46.914Z,16.40
2018-02-01T18:20:13.918Z,12.52
2018-02-01T18:22:40.167Z,12.77
2018-02-01T18:25:07.213Z,12.30
2018-02-01T18:27:34.209Z,11.07
2018-02-01T18:30:00.443Z,11.30
2018-02-01T18:32:26.640Z,10.68
2018-02-01T18:34:52.952Z,11.23
2018-02-01T18:37:19.911Z,9.90
2018-02-01T18:39:47.292Z,10.70
2018-02-01T18:42:14.237Z,11.25
2018-02-01T18:44:41.287Z,10.80
2018-02-01T18:47:09.175Z,10.15
2018-02-01T18:49:35.411Z,10.20
2018-02-01T18:52:01.605Z,11.07
2018-02-01T18:54:27.765Z,9.48
2018-02-01T18:56:53.888Z,9.77
2018-02-01T18:59:19.897Z,10.60
2018-02-01T19:01:45.921Z,9.80
2018-02-01T19:04:11.965Z,9.52
2018-02-01T19:06:38.035Z,9.57
2018-02-01T19:09:05.076Z,7.80
2018-02-01T19:11:31.836Z,8.82
2018-02-01T19:13:57.861Z,8.45
2018-02-01T19:16:24.088Z,9.38
2018-02-01T19:18:50.866Z,8.55
2018-02-01T19:21:16.924Z,9.35
2018-02-01T19:23:42.954Z,8.57
2018-02-01T19:26:08.982Z,9.20
2018-02-01T19:28:35.027Z,9.10
2018-02-01T19:31:03.822Z,11.15
2018-02-01T19:33:29.871Z,9.20
2018-02-01T19:35:56.055Z,8.80
2018-02-01T19:38:22.086Z,10.05
2018-02-01T19:40:48.327Z,9.07
2018-02-01T19:43:15.744Z,8.50
2018-02-01T19:45:41.984Z,8.82
2018-02-01T19:48:08.193Z,9.13
2018-02-01T19:50:34.416Z,9.15
2018-02-01T19:53:00.793Z,9.43
2018-02-01T19:55:28.267Z,9.52
2018-02-01T19:57:54.328Z,10.55
2018-02-01T20:00:20.757Z,11.45
2018-02-01T20:02:46.792Z,10.35
2018-02-01T20:05:13.080Z,9.05
2018-02-01T20:07:40.127Z,8.48
2018-02-01T20:10:06.356Z,9.02
2018-02-01T20:12:32.717Z,9.27
2018-02-01T20:14:59.067Z,8.85
2018-02-01T20:17:25.283Z,9.65
2018-02-01T20:19:51.513Z,9.23
2018-02-01T20:22:17.752Z,8.93
2018-02-01T20:24:43.985Z,8.77
2018-02-01T20:27:11.044Z,10.00
2018-02-01T20:29:38.015Z,9.27
2018-02-01T20:32:04.329Z,7.85
2018-02-01T20:34:31.059Z,9.60
2018-02-01T20:36:57.864Z,10.23
2018-02-01T20:39:23.899Z,9.63
2018-02-01T20:41:49.924Z,7.20
2018-02-01T20:44:15.981Z,9.25
2018-02-01T20:46:42.296Z,7.80
2018-02-01T20:49:08.348Z,7.75
2018-02-01T20:51:34.360Z,7.40
2018-02-01T20:54:00.389Z,8.75
2018-02-01T20:56:26.429Z,7.35
2018-02-01T20:58:52.524Z,8.20
2018-02-01T21:01:18.541Z,5.65
2018-02-01T21:03:44.568Z,6.72
2018-02-01T21:06:10.623Z,6.57
2018-02-01T21:08:37.447Z,6.37
2018-02-01T21:11:03.479Z,6.97
2018-02-01T21:13:29.526Z,5.85
2018-02-01T21:15:55.565Z,7.28
2018-02-01T21:18:21.661Z,8.18
2018-02-01T21:20:47.690Z,9.10
2018-02-01T21:23:13.786Z,8.73
2018-02-01T21:25:40.013Z,8.18
2018-02-01T21:28:07.969Z,6.80
2018-02-01T21:30:34.200Z,6.35
2018-02-01T21:33:00.518Z,5.70
2018-02-01T21:35:26.781Z,7.15
2018-02-01T21:37:53.761Z,6.80
2018-02-01T21:40:20.125Z,6.70
2018-02-01T21:42:46.365Z,6.15
2018-02-01T21:45:12.596Z,6.47
2018-02-01T21:47:38.855Z,6.20
2018-02-01T21:50:05.129Z,6.28
2018-02-01T21:52:31.376Z,5.45
2018-02-01T21:54:58.391Z,4.95
2018-02-01T21:57:24.615Z,6.10
2018-02-01T21:59:51.794Z,5.85
2018-02-01T22:02:20.412Z,6.40
2018-02-01T22:04:46.655Z,6.30
2018-02-01T22:07:12.848Z,5.85
2018-02-01T22:09:39.069Z,7.10
2018-02-01T22:12:06.040Z,7.55
2018-02-01T22:14:33.184Z,5.97
2018-02-01T22:17:00.132Z,7.95
2018-02-01T22:19:26.433Z,8.50
2018-02-01T22:21:52.649Z,8.52
2018-02-01T22:24:18.872Z,8.38
2018-02-01T22:26:45.137Z,8.30
2018-02-01T22:29:11.406Z,8.25
2018-02-01T22:31:37.646Z,8.30
2018-02-01T22:34:03.860Z,9.52
2018-02-01T22:36:30.941Z,8.93
2018-02-01T22:38:57.175Z,9.68
2018-02-01T22:41:23.225Z,9.27
2018-02-01T22:43:49.264Z,8.52
2018-02-01T22:46:16.016Z,8.98
2018-02-01T22:48:42.044Z,8.77
2018-02-01T22:51:08.124Z,8.30
2018-02-01T22:53:34.444Z,8.00
2018-02-01T22:56:01.248Z,7.15
2018-02-01T22:58:28.004Z,6.75
2018-02-01T23:00:54.073Z,7.32
2018-02-01T23:03:20.893Z,7.65
2018-02-01T23:05:46.911Z,8.05
2018-02-01T23:08:13.669Z,5.97
2018-02-01T23:10:39.707Z,7.18
2018-02-01T23:13:06.520Z,7.72
2018-02-01T23:15:32.580Z,8.85
2018-02-01T23:17:59.340Z,8.07
2018-02-01T23:20:26.158Z,7.75
2018-02-01T23:22:52.220Z,7.20
2018-02-01T23:25:18.387Z,8.35
2018-02-01T23:27:44.423Z,9.52
2018-02-01T23:30:10.580Z,9.10
2018-02-01T23:32:38.671Z,9.00
2018-02-01T23:35:04.744Z,9.52
2018-02-01T23:37:30.809Z,7.90
2018-02-01T23:39:57.576Z,7.80
2018-02-01T23:42:23.621Z,8.75
2018-02-01T23:44:49.669Z,8.25
2018-02-01T23:47:16.181Z,8.30
2018-02-01T23:52:13.671Z,8.57
2018-02-01T23:54:39.900Z,7.50
2018-02-01T23:57:06.998Z,10.27
2018-02-01T23:59:33.305Z,8.70
